sensor_id;sensor_type;location;lat;lon;timestamp;P1;durP1;ratioP1;P2;durP2;ratioP2
70138;SDS011;57507;43.056;0.150;2023-05-10T00:01:15;3.05;;;0.68;;
70138;SDS011;57507;43.056;0.150;2023-05-10T00:03:41;7.00;;;0.90;;
70138;SDS011;57507;43.056;0.150;2023-05-10T00:06:07;3.83;;;1.02;;
70138;SDS011;57507;43.056;0.150;2023-05-10T00:08:33;3.22;;;0.90;;
70138;SDS011;57507;43.056;0.150;2023-05-10T00:10:59;6.10;;;0.93;;
70138;SDS011;57507;43.056;0.150;2023-05-10T00:13:25;5.25;;;1.05;;
70138;SDS011;57507;43.056;0.150;2023-05-10T00:15:51;3.70;;;0.88;;
70138;SDS011;57507;43.056;0.150;2023-05-10T00:18:17;2.85;;;0.70;;
70138;SDS011;57507;43.056;0.150;2023-05-10T00:20:43;4.93;;;0.70;;
70138;SDS011;57507;43.056;0.150;2023-05-10T00:23:11;3.38;;;0.77;;
70138;SDS011;57507;43.056;0.150;2023-05-10T00:25:37;3.28;;;0.88;;
70138;SDS011;57507;43.056;0.150;2023-05-10T00:28:03;4.88;;;0.82;;
70138;SDS011;57507;43.056;0.150;2023-05-10T00:30:29;1.88;;;0.70;;
70138;SDS011;57507;43.056;0.150;2023-05-10T00:32:55;4.68;;;0.75;;
70138;SDS011;57507;43.056;0.150;2023-05-10T00:35:21;2.10;;;0.70;;
70138;SDS011;57507;43.056;0.150;2023-05-10T00:37:47;4.35;;;1.17;;
70138;SDS011;57507;43.056;0.150;2023-05-10T00:40:13;2.35;;;0.75;;
70138;SDS011;57507;43.056;0.150;2023-05-10T00:42:39;5.47;;;0.80;;
70138;SDS011;57507;43.056;0.150;2023-05-10T00:45:06;3.08;;;0.73;;
70138;SDS011;57507;43.056;0.150;2023-05-10T00:47:32;3.92;;;0.73;;
70138;SDS011;57507;43.056;0.150;2023-05-10T00:49:59;2.35;;;0.70;;
70138;SDS011;57507;43.056;0.150;2023-05-10T00:52:25;3.75;;;0.88;;
70138;SDS011;57507;43.056;0.150;2023-05-10T00:54:52;4.63;;;0.95;;
70138;SDS011;57507;43.056;0.150;2023-05-10T00:57:18;3.00;;;0.57;;
70138;SDS011;57507;43.056;0.150;2023-05-10T00:59:44;6.00;;;0.77;;
70138;SDS011;57507;43.056;0.150;2023-05-10T01:02:11;6.35;;;0.82;;
70138;SDS011;57507;43.056;0.150;2023-05-10T01:04:38;1.92;;;0.65;;
70138;SDS011;57507;43.056;0.150;2023-05-10T01:07:04;4.63;;;1.13;;
70138;SDS011;57507;43.056;0.150;2023-05-10T01:09:30;4.47;;;0.80;;
70138;SDS011;57507;43.056;0.150;2023-05-10T01:11:56;3.65;;;0.57;;
70138;SDS011;57507;43.056;0.150;2023-05-10T01:14:22;3.92;;;0.90;;
70138;SDS011;57507;43.056;0.150;2023-05-10T01:16:49;2.38;;;0.65;;
70138;SDS011;57507;43.056;0.150;2023-05-10T01:19:25;2.65;;;0.80;;
70138;SDS011;57507;43.056;0.150;2023-05-10T01:34:50;3.97;;;0.57;;
70138;SDS011;57507;43.056;0.150;2023-05-10T01:37:25;3.25;;;0.80;;
70138;SDS011;57507;43.056;0.150;2023-05-10T01:40:03;4.38;;;0.90;;
70138;SDS011;57507;43.056;0.150;2023-05-10T01:42:36;4.07;;;0.68;;
70138;SDS011;57507;43.056;0.150;2023-05-10T01:47:44;2.83;;;0.85;;
70138;SDS011;57507;43.056;0.150;2023-05-10T01:50:16;2.95;;;0.70;;
70138;SDS011;57507;43.056;0.150;2023-05-10T01:52:44;3.10;;;0.80;;
70138;SDS011;57507;43.056;0.150;2023-05-10T01:55:14;2.20;;;0.60;;
70138;SDS011;57507;43.056;0.150;2023-05-10T01:57:42;8.57;;;1.00;;
70138;SDS011;57507;43.056;0.150;2023-05-10T02:00:09;2.95;;;0.70;;
70138;SDS011;57507;43.056;0.150;2023-05-10T02:02:39;2.20;;;0.80;;
70138;SDS011;57507;43.056;0.150;2023-05-10T02:05:07;1.98;;;0.50;;
70138;SDS011;57507;43.056;0.150;2023-05-10T02:07:36;2.53;;;0.60;;
70138;SDS011;57507;43.056;0.150;2023-05-10T02:10:03;2.15;;;0.60;;
70138;SDS011;57507;43.056;0.150;2023-05-10T02:12:31;2.42;;;0.75;;
70138;SDS011;57507;43.056;0.150;2023-05-10T02:14:59;1.55;;;0.68;;
70138;SDS011;57507;43.056;0.150;2023-05-10T02:17:25;1.98;;;0.50;;
70138;SDS011;57507;43.056;0.150;2023-05-10T02:19:52;3.22;;;0.95;;
70138;SDS011;57507;43.056;0.150;2023-05-10T02:22:18;1.85;;;0.47;;
70138;SDS011;57507;43.056;0.150;2023-05-10T02:24:45;1.92;;;0.43;;
70138;SDS011;57507;43.056;0.150;2023-05-10T02:27:12;3.38;;;0.85;;
70138;SDS011;57507;43.056;0.150;2023-05-10T02:29:40;2.60;;;0.73;;
70138;SDS011;57507;43.056;0.150;2023-05-10T02:32:06;2.65;;;0.90;;
70138;SDS011;57507;43.056;0.150;2023-05-10T02:34:33;1.88;;;0.60;;
70138;SDS011;57507;43.056;0.150;2023-05-10T02:37:00;1.70;;;0.63;;
70138;SDS011;57507;43.056;0.150;2023-05-10T02:39:28;2.03;;;0.73;;
70138;SDS011;57507;43.056;0.150;2023-05-10T02:41:55;3.03;;;1.13;;
70138;SDS011;57507;43.056;0.150;2023-05-10T02:44:21;3.55;;;1.00;;
70138;SDS011;57507;43.056;0.150;2023-05-10T02:46:48;3.50;;;0.98;;
70138;SDS011;57507;43.056;0.150;2023-05-10T02:49:15;2.35;;;0.90;;
70138;SDS011;57507;43.056;0.150;2023-05-10T02:51:41;2.80;;;0.60;;
70138;SDS011;57507;43.056;0.150;2023-05-10T02:54:11;3.33;;;0.80;;
70138;SDS011;57507;43.056;0.150;2023-05-10T02:56:40;4.68;;;0.90;;
70138;SDS011;57507;43.056;0.150;2023-05-10T02:59:06;5.05;;;0.90;;
70138;SDS011;57507;43.056;0.150;2023-05-10T03:01:32;3.65;;;1.00;;
70138;SDS011;57507;43.056;0.150;2023-05-10T03:03:58;9.75;;;1.20;;
70138;SDS011;57507;43.056;0.150;2023-05-10T03:06:25;5.22;;;1.13;;
70138;SDS011;57507;43.056;0.150;2023-05-10T03:08:51;8.18;;;1.75;;
70138;SDS011;57507;43.056;0.150;2023-05-10T03:16:46;6.30;;;1.20;;
70138;SDS011;57507;43.056;0.150;2023-05-10T03:22:11;9.75;;;1.30;;
70138;SDS011;57507;43.056;0.150;2023-05-10T03:24:39;10.38;;;1.60;;
70138;SDS011;57507;43.056;0.150;2023-05-10T03:27:06;7.05;;;1.27;;
70138;SDS011;57507;43.056;0.150;2023-05-10T03:29:33;5.30;;;1.08;;
70138;SDS011;57507;43.056;0.150;2023-05-10T03:32:00;8.73;;;1.42;;
70138;SDS011;57507;43.056;0.150;2023-05-10T03:34:26;3.47;;;1.02;;
70138;SDS011;57507;43.056;0.150;2023-05-10T03:36:52;4.80;;;1.58;;
70138;SDS011;57507;43.056;0.150;2023-05-10T03:39:18;4.07;;;1.00;;
70138;SDS011;57507;43.056;0.150;2023-05-10T03:41:45;6.68;;;1.35;;
70138;SDS011;57507;43.056;0.150;2023-05-10T03:44:11;4.65;;;0.90;;
70138;SDS011;57507;43.056;0.150;2023-05-10T03:46:37;5.13;;;1.00;;
70138;SDS011;57507;43.056;0.150;2023-05-10T03:49:03;8.18;;;1.48;;
70138;SDS011;57507;43.056;0.150;2023-05-10T03:51:29;6.07;;;0.90;;
70138;SDS011;57507;43.056;0.150;2023-05-10T03:53:56;5.70;;;1.25;;
70138;SDS011;57507;43.056;0.150;2023-05-10T03:56:22;5.00;;;0.98;;
70138;SDS011;57507;43.056;0.150;2023-05-10T03:58:48;3.75;;;1.20;;
70138;SDS011;57507;43.056;0.150;2023-05-10T04:01:14;3.80;;;0.90;;
70138;SDS011;57507;43.056;0.150;2023-05-10T04:03:40;4.35;;;0.73;;
70138;SDS011;57507;43.056;0.150;2023-05-10T04:06:06;5.80;;;1.10;;
70138;SDS011;57507;43.056;0.150;2023-05-10T04:08:34;3.30;;;0.80;;
70138;SDS011;57507;43.056;0.150;2023-05-10T04:11:10;3.95;;;0.80;;
70138;SDS011;57507;43.056;0.150;2023-05-10T04:13:36;7.28;;;1.08;;
70138;SDS011;57507;43.056;0.150;2023-05-10T04:16:03;7.05;;;1.02;;
70138;SDS011;57507;43.056;0.150;2023-05-10T04:18:29;5.38;;;1.08;;
70138;SDS011;57507;43.056;0.150;2023-05-10T04:20:55;5.35;;;1.08;;
70138;SDS011;57507;43.056;0.150;2023-05-10T04:23:21;2.50;;;0.77;;
70138;SDS011;57507;43.056;0.150;2023-05-10T04:25:47;3.28;;;0.90;;
70138;SDS011;57507;43.056;0.150;2023-05-10T04:28:13;3.10;;;0.80;;
70138;SDS011;57507;43.056;0.150;2023-05-10T04:30:39;5.18;;;1.30;;
70138;SDS011;57507;43.056;0.150;2023-05-10T04:33:06;1.42;;;0.80;;
70138;SDS011;57507;43.056;0.150;2023-05-10T04:35:32;4.97;;;0.80;;
70138;SDS011;57507;43.056;0.150;2023-05-10T04:37:59;4.97;;;1.00;;
70138;SDS011;57507;43.056;0.150;2023-05-10T04:40:25;3.28;;;1.17;;
70138;SDS011;57507;43.056;0.150;2023-05-10T04:42:51;4.68;;;0.82;;
70138;SDS011;57507;43.056;0.150;2023-05-10T04:45:17;4.55;;;1.10;;
70138;SDS011;57507;43.056;0.150;2023-05-10T04:47:43;4.80;;;1.05;;
70138;SDS011;57507;43.056;0.150;2023-05-10T04:50:09;2.75;;;0.65;;
70138;SDS011;57507;43.056;0.150;2023-05-10T04:52:35;2.70;;;0.80;;
70138;SDS011;57507;43.056;0.150;2023-05-10T04:55:02;2.33;;;0.60;;
70138;SDS011;57507;43.056;0.150;2023-05-10T04:57:28;4.28;;;1.20;;
70138;SDS011;57507;43.056;0.150;2023-05-10T04:59:54;2.88;;;0.90;;
70138;SDS011;57507;43.056;0.150;2023-05-10T05:02:20;3.47;;;0.80;;
70138;SDS011;57507;43.056;0.150;2023-05-10T05:04:46;4.20;;;0.70;;
70138;SDS011;57507;43.056;0.150;2023-05-10T05:07:12;5.05;;;0.90;;
70138;SDS011;57507;43.056;0.150;2023-05-10T05:09:38;4.38;;;0.90;;
70138;SDS011;57507;43.056;0.150;2023-05-10T05:12:04;4.00;;;0.80;;
70138;SDS011;57507;43.056;0.150;2023-05-10T05:14:30;3.58;;;0.68;;
70138;SDS011;57507;43.056;0.150;2023-05-10T05:16:56;2.22;;;0.60;;
70138;SDS011;57507;43.056;0.150;2023-05-10T05:19:22;3.03;;;0.60;;
70138;SDS011;57507;43.056;0.150;2023-05-10T05:21:48;3.05;;;0.70;;
70138;SDS011;57507;43.056;0.150;2023-05-10T05:24:15;2.08;;;0.77;;
70138;SDS011;57507;43.056;0.150;2023-05-10T05:26:41;4.03;;;0.80;;
70138;SDS011;57507;43.056;0.150;2023-05-10T05:29:07;2.47;;;0.80;;
70138;SDS011;57507;43.056;0.150;2023-05-10T05:31:33;3.03;;;0.98;;
70138;SDS011;57507;43.056;0.150;2023-05-10T05:33:59;4.05;;;0.98;;
70138;SDS011;57507;43.056;0.150;2023-05-10T05:36:25;1.70;;;0.70;;
70138;SDS011;57507;43.056;0.150;2023-05-10T05:38:51;3.72;;;0.77;;
70138;SDS011;57507;43.056;0.150;2023-05-10T05:41:17;2.78;;;0.75;;
70138;SDS011;57507;43.056;0.150;2023-05-10T05:43:43;2.50;;;0.70;;
70138;SDS011;57507;43.056;0.150;2023-05-10T05:46:09;5.15;;;0.80;;
70138;SDS011;57507;43.056;0.150;2023-05-10T05:48:35;2.13;;;0.90;;
70138;SDS011;57507;43.056;0.150;2023-05-10T05:51:01;3.65;;;1.00;;
70138;SDS011;57507;43.056;0.150;2023-05-10T05:53:27;3.58;;;0.77;;
70138;SDS011;57507;43.056;0.150;2023-05-10T05:55:54;3.25;;;0.70;;
70138;SDS011;57507;43.056;0.150;2023-05-10T05:58:21;4.57;;;1.00;;
70138;SDS011;57507;43.056;0.150;2023-05-10T06:00:47;4.68;;;0.82;;
70138;SDS011;57507;43.056;0.150;2023-05-10T06:03:13;7.15;;;1.20;;
70138;SDS011;57507;43.056;0.150;2023-05-10T06:05:39;5.32;;;1.17;;
70138;SDS011;57507;43.056;0.150;2023-05-10T06:08:05;3.78;;;1.00;;
70138;SDS011;57507;43.056;0.150;2023-05-10T06:10:31;4.57;;;0.60;;
70138;SDS011;57507;43.056;0.150;2023-05-10T06:12:57;1.98;;;0.57;;
70138;SDS011;57507;43.056;0.150;2023-05-10T06:15:23;3.17;;;0.60;;
70138;SDS011;57507;43.056;0.150;2023-05-10T06:17:49;1.42;;;0.73;;
70138;SDS011;57507;43.056;0.150;2023-05-10T06:20:15;6.25;;;0.90;;
70138;SDS011;57507;43.056;0.150;2023-05-10T06:22:41;6.47;;;1.30;;
70138;SDS011;57507;43.056;0.150;2023-05-10T06:25:08;5.18;;;0.85;;
70138;SDS011;57507;43.056;0.150;2023-05-10T06:27:34;3.83;;;1.00;;
70138;SDS011;57507;43.056;0.150;2023-05-10T06:30:00;2.20;;;0.80;;
70138;SDS011;57507;43.056;0.150;2023-05-10T06:32:27;4.47;;;0.90;;
70138;SDS011;57507;43.056;0.150;2023-05-10T06:34:53;3.97;;;0.90;;
70138;SDS011;57507;43.056;0.150;2023-05-10T06:37:19;3.63;;;0.95;;
70138;SDS011;57507;43.056;0.150;2023-05-10T06:39:45;5.10;;;0.90;;
70138;SDS011;57507;43.056;0.150;2023-05-10T06:42:11;2.75;;;0.70;;
70138;SDS011;57507;43.056;0.150;2023-05-10T06:44:37;3.08;;;0.70;;
70138;SDS011;57507;43.056;0.150;2023-05-10T06:47:03;4.50;;;1.20;;
70138;SDS011;57507;43.056;0.150;2023-05-10T06:49:30;6.43;;;0.90;;
70138;SDS011;57507;43.056;0.150;2023-05-10T06:51:56;5.00;;;1.00;;
70138;SDS011;57507;43.056;0.150;2023-05-10T06:54:22;3.28;;;0.77;;
70138;SDS011;57507;43.056;0.150;2023-05-10T06:56:48;5.70;;;1.33;;
70138;SDS011;57507;43.056;0.150;2023-05-10T06:59:14;6.68;;;1.20;;
70138;SDS011;57507;43.056;0.150;2023-05-10T07:01:41;6.72;;;1.08;;
70138;SDS011;57507;43.056;0.150;2023-05-10T07:04:07;4.30;;;1.00;;
70138;SDS011;57507;43.056;0.150;2023-05-10T07:06:33;1.77;;;0.60;;
70138;SDS011;57507;43.056;0.150;2023-05-10T07:09:00;3.17;;;0.75;;
70138;SDS011;57507;43.056;0.150;2023-05-10T07:11:26;5.40;;;1.10;;
70138;SDS011;57507;43.056;0.150;2023-05-10T07:13:52;4.05;;;1.00;;
70138;SDS011;57507;43.056;0.150;2023-05-10T07:16:18;3.53;;;1.00;;
70138;SDS011;57507;43.056;0.150;2023-05-10T07:18:44;3.45;;;0.98;;
70138;SDS011;57507;43.056;0.150;2023-05-10T07:21:10;5.18;;;1.00;;
70138;SDS011;57507;43.056;0.150;2023-05-10T07:23:38;6.00;;;1.40;;
70138;SDS011;57507;43.056;0.150;2023-05-10T07:26:04;5.43;;;0.90;;
70138;SDS011;57507;43.056;0.150;2023-05-10T07:28:30;5.75;;;1.50;;
70138;SDS011;57507;43.056;0.150;2023-05-10T07:30:56;9.25;;;1.38;;
70138;SDS011;57507;43.056;0.150;2023-05-10T07:33:28;7.30;;;1.00;;
70138;SDS011;57507;43.056;0.150;2023-05-10T07:35:54;6.88;;;1.30;;
70138;SDS011;57507;43.056;0.150;2023-05-10T07:38:20;10.07;;;1.50;;
70138;SDS011;57507;43.056;0.150;2023-05-10T07:40:46;6.65;;;1.63;;
70138;SDS011;57507;43.056;0.150;2023-05-10T07:43:12;9.52;;;1.30;;
70138;SDS011;57507;43.056;0.150;2023-05-10T07:45:38;4.40;;;1.20;;
70138;SDS011;57507;43.056;0.150;2023-05-10T07:48:04;3.38;;;1.13;;
70138;SDS011;57507;43.056;0.150;2023-05-10T07:50:30;5.63;;;1.00;;
70138;SDS011;57507;43.056;0.150;2023-05-10T07:52:57;5.30;;;1.17;;
70138;SDS011;57507;43.056;0.150;2023-05-10T07:55:23;5.53;;;1.30;;
70138;SDS011;57507;43.056;0.150;2023-05-10T07:57:49;7.63;;;1.23;;
70138;SDS011;57507;43.056;0.150;2023-05-10T08:00:16;3.33;;;1.20;;
70138;SDS011;57507;43.056;0.150;2023-05-10T08:02:43;6.13;;;0.98;;
70138;SDS011;57507;43.056;0.150;2023-05-10T08:05:09;5.22;;;0.95;;
70138;SDS011;57507;43.056;0.150;2023-05-10T08:07:35;2.83;;;0.93;;
70138;SDS011;57507;43.056;0.150;2023-05-10T08:10:02;2.60;;;0.90;;
70138;SDS011;57507;43.056;0.150;2023-05-10T08:12:28;2.50;;;0.70;;
70138;SDS011;57507;43.056;0.150;2023-05-10T08:14:54;5.22;;;1.00;;
70138;SDS011;57507;43.056;0.150;2023-05-10T08:17:20;2.97;;;1.02;;
70138;SDS011;57507;43.056;0.150;2023-05-10T08:19:46;3.83;;;0.68;;
70138;SDS011;57507;43.056;0.150;2023-05-10T08:22:12;5.43;;;1.00;;
70138;SDS011;57507;43.056;0.150;2023-05-10T08:24:38;2.58;;;0.52;;
70138;SDS011;57507;43.056;0.150;2023-05-10T08:27:07;2.38;;;0.52;;
70138;SDS011;57507;43.056;0.150;2023-05-10T08:29:33;6.47;;;0.80;;
70138;SDS011;57507;43.056;0.150;2023-05-10T08:31:59;2.58;;;0.60;;
70138;SDS011;57507;43.056;0.150;2023-05-10T08:34:26;2.58;;;0.93;;
70138;SDS011;57507;43.056;0.150;2023-05-10T08:36:52;2.80;;;0.55;;
70138;SDS011;57507;43.056;0.150;2023-05-10T08:39:18;3.05;;;0.88;;
70138;SDS011;57507;43.056;0.150;2023-05-10T08:41:44;1.15;;;0.38;;
70138;SDS011;57507;43.056;0.150;2023-05-10T08:44:10;2.40;;;0.40;;
70138;SDS011;57507;43.056;0.150;2023-05-10T08:46:37;3.58;;;0.57;;
70138;SDS011;57507;43.056;0.150;2023-05-10T08:49:05;1.52;;;0.35;;
70138;SDS011;57507;43.056;0.150;2023-05-10T08:51:38;2.25;;;0.80;;
70138;SDS011;57507;43.056;0.150;2023-05-10T08:54:06;2.45;;;0.70;;
70138;SDS011;57507;43.056;0.150;2023-05-10T08:56:32;2.22;;;0.50;;
70138;SDS011;57507;43.056;0.150;2023-05-10T08:58:58;3.17;;;0.50;;
70138;SDS011;57507;43.056;0.150;2023-05-10T09:01:24;0.70;;;0.47;;
70138;SDS011;57507;43.056;0.150;2023-05-10T09:03:51;4.20;;;0.50;;
70138;SDS011;57507;43.056;0.150;2023-05-10T09:06:17;1.17;;;0.32;;
70138;SDS011;57507;43.056;0.150;2023-05-10T09:08:43;3.17;;;0.50;;
70138;SDS011;57507;43.056;0.150;2023-05-10T09:11:11;2.95;;;0.30;;
70138;SDS011;57507;43.056;0.150;2023-05-10T09:13:37;3.63;;;0.60;;
70138;SDS011;57507;43.056;0.150;2023-05-10T09:16:03;1.88;;;0.40;;
70138;SDS011;57507;43.056;0.150;2023-05-10T09:18:30;2.05;;;0.30;;
70138;SDS011;57507;43.056;0.150;2023-05-10T09:20:56;2.60;;;0.40;;
70138;SDS011;57507;43.056;0.150;2023-05-10T09:23:22;2.15;;;0.47;;
70138;SDS011;57507;43.056;0.150;2023-05-10T09:26:05;2.05;;;0.20;;
70138;SDS011;57507;43.056;0.150;2023-05-10T09:28:50;2.50;;;0.30;;
70138;SDS011;57507;43.056;0.150;2023-05-10T09:31:16;1.15;;;0.68;;
70138;SDS011;57507;43.056;0.150;2023-05-10T09:33:45;1.35;;;0.47;;
70138;SDS011;57507;43.056;0.150;2023-05-10T09:36:12;0.70;;;0.30;;
70138;SDS011;57507;43.056;0.150;2023-05-10T09:38:45;0.80;;;0.30;;
70138;SDS011;57507;43.056;0.150;2023-05-10T09:41:18;1.17;;;0.40;;
70138;SDS011;57507;43.056;0.150;2023-05-10T09:43:45;1.80;;;0.40;;
70138;SDS011;57507;43.056;0.150;2023-05-10T09:46:11;1.73;;;0.50;;
70138;SDS011;57507;43.056;0.150;2023-05-10T09:48:41;5.10;;;0.40;;
70138;SDS011;57507;43.056;0.150;2023-05-10T09:51:08;3.22;;;0.43;;
70138;SDS011;57507;43.056;0.150;2023-05-10T09:53:34;0.80;;;0.32;;
70138;SDS011;57507;43.056;0.150;2023-05-10T09:56:00;1.08;;;0.32;;
70138;SDS011;57507;43.056;0.150;2023-05-10T09:58:26;1.63;;;0.47;;
70138;SDS011;57507;43.056;0.150;2023-05-10T10:00:52;1.33;;;0.35;;
70138;SDS011;57507;43.056;0.150;2023-05-10T10:03:21;2.20;;;0.45;;
70138;SDS011;57507;43.056;0.150;2023-05-10T10:05:49;2.70;;;0.40;;
70138;SDS011;57507;43.056;0.150;2023-05-10T10:08:16;1.00;;;0.38;;
70138;SDS011;57507;43.056;0.150;2023-05-10T10:10:42;2.53;;;0.30;;
70138;SDS011;57507;43.056;0.150;2023-05-10T10:13:12;1.58;;;0.50;;
70138;SDS011;57507;43.056;0.150;2023-05-10T10:15:38;2.42;;;0.60;;
70138;SDS011;57507;43.056;0.150;2023-05-10T10:18:04;1.67;;;0.50;;
70138;SDS011;57507;43.056;0.150;2023-05-10T10:20:30;1.25;;;0.30;;
70138;SDS011;57507;43.056;0.150;2023-05-10T10:22:56;1.90;;;0.30;;
70138;SDS011;57507;43.056;0.150;2023-05-10T10:25:23;2.30;;;0.50;;
70138;SDS011;57507;43.056;0.150;2023-05-10T10:27:56;1.75;;;0.40;;
70138;SDS011;57507;43.056;0.150;2023-05-10T10:30:43;7.32;;;0.60;;
70138;SDS011;57507;43.056;0.150;2023-05-10T10:35:52;1.80;;;0.43;;
70138;SDS011;57507;43.056;0.150;2023-05-10T10:38:18;3.03;;;0.50;;
70138;SDS011;57507;43.056;0.150;2023-05-10T10:40:44;4.00;;;0.50;;
70138;SDS011;57507;43.056;0.150;2023-05-10T10:48:37;1.98;;;0.30;;
70138;SDS011;57507;43.056;0.150;2023-05-10T10:51:03;2.55;;;0.55;;
70138;SDS011;57507;43.056;0.150;2023-05-10T10:53:30;1.30;;;0.30;;
70138;SDS011;57507;43.056;0.150;2023-05-10T10:56:29;1.63;;;0.40;;
70138;SDS011;57507;43.056;0.150;2023-05-10T10:58:49;2.43;;;0.57;;
70138;SDS011;57507;43.056;0.150;2023-05-10T11:01:18;1.50;;;0.30;;
70138;SDS011;57507;43.056;0.150;2023-05-10T11:06:32;1.42;;;0.38;;
70138;SDS011;57507;43.056;0.150;2023-05-10T11:08:59;2.20;;;0.40;;
70138;SDS011;57507;43.056;0.150;2023-05-10T11:11:25;1.00;;;0.20;;
70138;SDS011;57507;43.056;0.150;2023-05-10T11:13:51;3.22;;;0.50;;
70138;SDS011;57507;43.056;0.150;2023-05-10T11:18:53;0.98;;;0.45;;
70138;SDS011;57507;43.056;0.150;2023-05-10T11:21:19;2.95;;;0.40;;
70138;SDS011;57507;43.056;0.150;2023-05-10T11:23:53;2.72;;;0.30;;
70138;SDS011;57507;43.056;0.150;2023-05-10T11:26:23;4.40;;;0.73;;
70138;SDS011;57507;43.056;0.150;2023-05-10T11:28:51;1.73;;;0.50;;
70138;SDS011;57507;43.056;0.150;2023-05-10T11:31:18;1.35;;;0.30;;
70138;SDS011;57507;43.056;0.150;2023-05-10T11:33:44;3.97;;;0.50;;
70138;SDS011;57507;43.056;0.150;2023-05-10T11:36:15;2.42;;;0.60;;
70138;SDS011;57507;43.056;0.150;2023-05-10T11:38:41;1.50;;;0.47;;
70138;SDS011;57507;43.056;0.150;2023-05-10T11:41:10;2.53;;;0.50;;
70138;SDS011;57507;43.056;0.150;2023-05-10T11:43:38;2.65;;;0.50;;
70138;SDS011;57507;43.056;0.150;2023-05-10T11:46:05;2.75;;;0.45;;
70138;SDS011;57507;43.056;0.150;2023-05-10T11:48:31;1.75;;;0.50;;
70138;SDS011;57507;43.056;0.150;2023-05-10T11:50:58;1.30;;;0.40;;
70138;SDS011;57507;43.056;0.150;2023-05-10T11:53:27;1.75;;;0.50;;
70138;SDS011;57507;43.056;0.150;2023-05-10T11:55:53;3.03;;;0.60;;
70138;SDS011;57507;43.056;0.150;2023-05-10T11:58:19;1.98;;;0.60;;
70138;SDS011;57507;43.056;0.150;2023-05-10T12:00:46;2.33;;;0.40;;
70138;SDS011;57507;43.056;0.150;2023-05-10T12:03:12;2.05;;;0.40;;
70138;SDS011;57507;43.056;0.150;2023-05-10T12:05:39;1.63;;;0.45;;
70138;SDS011;57507;43.056;0.150;2023-05-10T12:08:13;3.22;;;0.63;;
70138;SDS011;57507;43.056;0.150;2023-05-10T12:10:39;1.38;;;0.35;;
70138;SDS011;57507;43.056;0.150;2023-05-10T12:13:10;1.60;;;0.50;;
70138;SDS011;57507;43.056;0.150;2023-05-10T12:15:36;1.58;;;0.47;;
70138;SDS011;57507;43.056;0.150;2023-05-10T12:18:02;1.33;;;0.43;;
70138;SDS011;57507;43.056;0.150;2023-05-10T12:20:30;2.88;;;0.50;;
70138;SDS011;57507;43.056;0.150;2023-05-10T12:22:56;2.72;;;0.85;;
70138;SDS011;57507;43.056;0.150;2023-05-10T12:25:23;4.90;;;1.00;;
70138;SDS011;57507;43.056;0.150;2023-05-10T12:27:50;9.85;;;2.55;;
70138;SDS011;57507;43.056;0.150;2023-05-10T12:32:49;5.87;;;1.93;;
70138;SDS011;57507;43.056;0.150;2023-05-10T12:35:15;3.67;;;1.05;;
70138;SDS011;57507;43.056;0.150;2023-05-10T12:37:44;3.50;;;1.10;;
70138;SDS011;57507;43.056;0.150;2023-05-10T12:40:10;4.20;;;0.88;;
70138;SDS011;57507;43.056;0.150;2023-05-10T12:42:37;3.72;;;0.90;;
70138;SDS011;57507;43.056;0.150;2023-05-10T12:45:07;4.05;;;0.50;;
70138;SDS011;57507;43.056;0.150;2023-05-10T12:47:34;2.83;;;0.75;;
70138;SDS011;57507;43.056;0.150;2023-05-10T12:50:00;2.55;;;0.50;;
70138;SDS011;57507;43.056;0.150;2023-05-10T12:52:27;3.55;;;0.60;;
70138;SDS011;57507;43.056;0.150;2023-05-10T12:54:53;2.92;;;0.50;;
70138;SDS011;57507;43.056;0.150;2023-05-10T12:57:20;2.13;;;0.50;;
70138;SDS011;57507;43.056;0.150;2023-05-10T12:59:46;2.80;;;0.63;;
70138;SDS011;57507;43.056;0.150;2023-05-10T13:02:12;2.50;;;0.50;;
70138;SDS011;57507;43.056;0.150;2023-05-10T13:04:39;1.90;;;0.45;;
70138;SDS011;57507;43.056;0.150;2023-05-10T13:07:06;2.55;;;0.55;;
70138;SDS011;57507;43.056;0.150;2023-05-10T13:09:32;2.38;;;0.45;;
70138;SDS011;57507;43.056;0.150;2023-05-10T13:11:58;1.60;;;0.40;;
70138;SDS011;57507;43.056;0.150;2023-05-10T13:14:24;2.70;;;0.55;;
70138;SDS011;57507;43.056;0.150;2023-05-10T13:16:50;2.00;;;0.50;;
70138;SDS011;57507;43.056;0.150;2023-05-10T13:19:16;1.65;;;0.50;;
70138;SDS011;57507;43.056;0.150;2023-05-10T13:21:43;2.65;;;0.60;;
70138;SDS011;57507;43.056;0.150;2023-05-10T13:24:10;1.63;;;0.43;;
70138;SDS011;57507;43.056;0.150;2023-05-10T13:26:38;1.83;;;0.50;;
70138;SDS011;57507;43.056;0.150;2023-05-10T13:29:05;2.72;;;0.52;;
70138;SDS011;57507;43.056;0.150;2023-05-10T13:31:31;1.80;;;0.50;;
70138;SDS011;57507;43.056;0.150;2023-05-10T13:33:57;2.05;;;0.45;;
70138;SDS011;57507;43.056;0.150;2023-05-10T13:36:23;1.35;;;0.32;;
70138;SDS011;57507;43.056;0.150;2023-05-10T13:38:49;3.15;;;0.65;;
70138;SDS011;57507;43.056;0.150;2023-05-10T13:41:15;3.20;;;0.73;;
70138;SDS011;57507;43.056;0.150;2023-05-10T13:43:41;2.00;;;0.50;;
70138;SDS011;57507;43.056;0.150;2023-05-10T13:46:07;4.57;;;0.68;;
70138;SDS011;57507;43.056;0.150;2023-05-10T13:48:33;3.63;;;0.68;;
70138;SDS011;57507;43.056;0.150;2023-05-10T13:51:01;4.30;;;0.52;;
70138;SDS011;57507;43.056;0.150;2023-05-10T13:53:27;1.13;;;0.45;;
70138;SDS011;57507;43.056;0.150;2023-05-10T13:55:54;4.05;;;0.57;;
70138;SDS011;57507;43.056;0.150;2023-05-10T13:58:20;2.75;;;0.70;;
70138;SDS011;57507;43.056;0.150;2023-05-10T14:00:46;4.53;;;0.80;;
70138;SDS011;57507;43.056;0.150;2023-05-10T14:03:12;2.53;;;0.40;;
70138;SDS011;57507;43.056;0.150;2023-05-10T14:05:38;2.45;;;0.47;;
70138;SDS011;57507;43.056;0.150;2023-05-10T14:08:04;3.35;;;0.68;;
70138;SDS011;57507;43.056;0.150;2023-05-10T14:10:30;1.35;;;0.47;;
70138;SDS011;57507;43.056;0.150;2023-05-10T14:12:56;4.80;;;0.70;;
70138;SDS011;57507;43.056;0.150;2023-05-10T14:15:22;2.60;;;0.70;;
70138;SDS011;57507;43.056;0.150;2023-05-10T14:17:48;1.98;;;0.50;;
70138;SDS011;57507;43.056;0.150;2023-05-10T14:20:14;3.28;;;0.57;;
70138;SDS011;57507;43.056;0.150;2023-05-10T14:22:41;2.85;;;0.50;;
70138;SDS011;57507;43.056;0.150;2023-05-10T14:25:07;3.53;;;0.80;;
70138;SDS011;57507;43.056;0.150;2023-05-10T14:27:33;2.35;;;1.00;;
70138;SDS011;57507;43.056;0.150;2023-05-10T14:29:59;3.85;;;0.80;;
70138;SDS011;57507;43.056;0.150;2023-05-10T14:32:25;2.88;;;0.70;;
70138;SDS011;57507;43.056;0.150;2023-05-10T14:34:52;1.88;;;0.50;;
70138;SDS011;57507;43.056;0.150;2023-05-10T14:37:18;2.50;;;0.70;;
70138;SDS011;57507;43.056;0.150;2023-05-10T14:39:44;1.67;;;0.57;;
70138;SDS011;57507;43.056;0.150;2023-05-10T14:42:11;2.58;;;0.60;;
70138;SDS011;57507;43.056;0.150;2023-05-10T14:44:37;3.65;;;0.50;;
70138;SDS011;57507;43.056;0.150;2023-05-10T14:47:03;1.73;;;0.55;;
70138;SDS011;57507;43.056;0.150;2023-05-10T14:49:29;2.03;;;0.57;;
70138;SDS011;57507;43.056;0.150;2023-05-10T14:51:55;2.72;;;0.63;;
70138;SDS011;57507;43.056;0.150;2023-05-10T14:54:21;3.25;;;0.77;;
70138;SDS011;57507;43.056;0.150;2023-05-10T14:56:47;1.98;;;0.60;;
70138;SDS011;57507;43.056;0.150;2023-05-10T14:59:14;2.35;;;0.73;;
70138;SDS011;57507;43.056;0.150;2023-05-10T15:01:40;2.22;;;0.60;;
70138;SDS011;57507;43.056;0.150;2023-05-10T15:04:07;2.30;;;0.40;;
70138;SDS011;57507;43.056;0.150;2023-05-10T15:06:33;2.38;;;0.50;;
70138;SDS011;57507;43.056;0.150;2023-05-10T15:09:00;2.95;;;0.50;;
70138;SDS011;57507;43.056;0.150;2023-05-10T15:11:26;2.15;;;0.70;;
70138;SDS011;57507;43.056;0.150;2023-05-10T15:13:52;2.28;;;0.50;;
70138;SDS011;57507;43.056;0.150;2023-05-10T15:16:18;2.28;;;0.57;;
70138;SDS011;57507;43.056;0.150;2023-05-10T15:18:45;2.92;;;0.70;;
70138;SDS011;57507;43.056;0.150;2023-05-10T15:21:11;2.65;;;0.60;;
70138;SDS011;57507;43.056;0.150;2023-05-10T15:23:37;2.88;;;0.73;;
70138;SDS011;57507;43.056;0.150;2023-05-10T15:26:03;2.90;;;0.63;;